Aeroporto :
LOGIN :

Iscrizione | Disclaimer

   EN    FR    IT 

 










Sommario :    VFR   VFR Marginale   IFR   IFR Intensivo   IFR Molto Intensivo
Visibilità : 
Base nubi : 
>= 8 km
>= 3000ft
5 / 8 km
1000 / 3000 ft
1500m / 5 km
500 / 1000 ft
800 / 1500m
200 / 500 ft
< 800m
< 200 ft
Simboli :   Temporali  Nebbia  Neve Forte  Precipitazioni Forti  Vento > 20 kt
SIGMETs :   Varie  Temporali  Ghiacco  Turbolenza  Onda orograficha  Ceneri Vulcaniche







- Altitudine del aeroporto : 65 ft
- Codice IATA : PIK
- Carte del aeroporto


EGPK - Glasgow Prestwick

ULTIMO METAR :
  • 210650Z 17005KT 9999 SCT012 BKN032 14/13 Q1021

METARs OBSOLETI :
  • 210620Z 19006KT 9999 FEW012 SCT045 14/13 Q1021
  • 210550Z 15002KT 9999 FEW012 SCT045 13/12 Q1021
  • 210450Z 17004KT 9999 FEW010 SCT038 13/12 Q1021
  • 210350Z 15004KT 9999 BKN020 13/12 Q1021

TAF AMD TAF EGPK
Valido dal 21 a 06 ore il 22 a 06 ore UTC


210614Z 2106/2206 19009KT 9999 FEW015 SCT035
TEMPO 2110/2119 19017G27KT
TEMPO 2112/2119 4000 RA
TEMPO 2115/2120 BKN012
PROB40
TEMPO 2115/2120 +RA BKN008
Nessun NOTAM noto per questo aeroporto.



MetMap, La meteo Aeronautica in un colpo d'occhio ! - Copyright ORBIFLY Dicembre 2007 - Disclaimer

ORBIFLY MET'MAP TEAM :

Programmazione e sviluppo : Alexandra Zaïnal
Concezione e sviluppo : Baudouin d'Aumeries
Co-Programmazione e sviluppo : Marc-Olivier Méhu
Supporto tecnico e logistico : Manuel Goepfert
Aiuto per la traduzione : Arnaldo La Scala

Contatto : metmap@orbifly.com




FONTI E CREDITI :

   NOAA